Time;durP1;ratioP1;P1;durP2;ratioP2;P2;SDS_P1;SDS_P2;PMS_P1;PMS_P2;Temp;Humidity;BMP_temperature;BMP_pressure;BME280_temperature;BME280_humidity;BME280_pressure;Samples;Min_cycle;Max_cycle;Signal;HPM_P1;HPM_P2
2024/03/18 00:01:35;;;;;;;346.33;94.60;;;7.40;99.90;10.40;97006.00;;;;4993850;28;20209;-84
2024/03/18 00:04:23;;;;;;;341.70;93.53;;;7.50;99.90;9.90;96996.00;;;;4998286;28;20622;-82
2024/03/18 00:07:12;;;;;;;342.33;91.43;;;7.50;99.90;9.60;96985.00;;;;4989682;28;20215;-83
2024/03/18 00:10:01;;;;;;;341.97;91.17;;;7.40;99.90;9.80;96980.00;;;;4995851;28;20719;-82
2024/03/18 00:12:49;;;;;;;345.70;95.03;;;7.40;99.90;9.60;96985.00;;;;4993317;28;20218;-83
2024/03/18 00:15:37;;;;;;;349.57;94.10;;;7.40;99.90;9.40;96986.00;;;;4994146;28;20230;-82
2024/03/18 00:18:25;;;;;;;336.90;86.83;;;7.30;99.90;9.30;96974.00;;;;5000189;28;20205;-84
2024/03/18 00:21:14;;;;;;;338.33;89.67;;;7.20;99.90;9.50;96984.00;;;;4991652;28;20206;-82
2024/03/18 00:24:03;;;;;;;340.47;88.93;;;7.20;99.90;9.60;96971.00;;;;4998853;28;20198;-82
2024/03/18 00:26:51;;;;;;;355.83;97.43;;;7.20;99.90;9.90;96975.00;;;;4999704;28;20225;-83
2024/03/18 00:29:39;;;;;;;348.33;95.57;;;7.30;99.90;9.60;96974.00;;;;5010215;28;20225;-82
2024/03/18 00:32:30;;;;;;;331.23;82.63;;;7.20;99.90;9.80;96964.00;;;;4995922;28;20437;-82
2024/03/18 00:35:19;;;;;;;339.53;94.07;;;7.30;99.90;9.60;96965.00;;;;4995665;28;20837;-82
2024/03/18 00:38:06;;;;;;;342.77;98.60;;;7.20;99.90;10.00;96970.00;;;;5004754;28;20817;-83
2024/03/18 00:41:44;;;;;;;341.80;95.87;;;7.30;99.90;9.80;96966.00;;;;4995067;28;20436;-82
2024/03/18 00:44:04;;;;;;;335.00;90.03;;;7.30;99.90;10.00;96970.00;;;;4996421;28;20437;-83
2024/03/18 00:46:53;;;;;;;344.20;91.27;;;7.30;99.90;9.90;96960.00;;;;5002333;28;20461;-82
2024/03/18 00:49:41;;;;;;;341.63;90.37;;;7.30;99.90;9.80;96956.00;;;;4988979;28;20531;-82
2024/03/18 00:52:28;;;;;;;328.30;83.20;;;7.30;99.90;9.80;96949.00;;;;4992017;28;20793;-82
2024/03/18 00:55:17;;;;;;;337.17;88.23;;;7.40;99.90;10.00;96952.00;;;;4999800;28;21059;-82
2024/03/18 00:58:07;;;;;;;336.50;88.60;;;7.40;99.90;9.80;96949.00;;;;4995657;28;20512;-83
2024/03/18 01:00:55;;;;;;;359.07;99.50;;;7.40;99.90;9.40;96940.00;;;;4994620;28;20429;-83
2024/03/18 01:03:43;;;;;;;346.30;94.20;;;7.30;99.90;9.90;96940.00;;;;4994379;28;20255;-83
2024/03/18 01:06:31;;;;;;;339.20;88.30;;;7.30;99.90;9.80;96935.00;;;;4989666;28;20221;-82
2024/03/18 01:09:19;;;;;;;340.87;88.80;;;7.30;99.90;9.90;96940.00;;;;4997979;28;20729;-82
2024/03/18 01:12:08;;;;;;;345.17;93.67;;;7.40;99.90;9.40;96932.00;;;;4998589;28;20205;-82
2024/03/18 01:14:57;;;;;;;340.90;88.70;;;7.30;99.90;9.50;96930.00;;;;4994430;28;20216;-82
2024/03/18 01:17:45;;;;;;;349.57;95.77;;;7.20;99.90;9.80;96932.00;;;;4992563;28;20287;-82
2024/03/18 01:20:34;;;;;;;337.10;89.63;;;7.30;99.90;9.20;96927.00;;;;4998234;28;20198;-82
2024/03/18 01:23:22;;;;;;;340.97;89.00;;;7.20;99.90;9.40;96927.00;;;;4993771;28;20208;-83
2024/03/18 01:26:10;;;;;;;337.33;88.60;;;7.20;99.90;9.80;96920.00;;;;4995218;28;20968;-82
2024/03/18 01:28:58;;;;;;;345.63;93.43;;;7.20;99.90;9.80;96919.00;;;;4982046;28;20284;-82
2024/03/18 01:31:48;;;;;;;348.43;95.33;;;7.30;99.90;9.80;96925.00;;;;4995222;28;20256;-82
2024/03/18 01:34:36;;;;;;;345.17;92.23;;;7.30;99.90;9.50;96928.00;;;;4995675;28;20206;-82
2024/03/18 01:37:24;;;;;;;341.27;89.97;;;7.30;99.90;9.40;96931.00;;;;4999340;28;20206;-82
2024/03/18 01:40:13;;;;;;;342.17;92.90;;;7.30;99.90;9.50;96926.00;;;;4998255;28;20623;-83
2024/03/18 01:43:01;;;;;;;340.00;87.37;;;7.20;99.90;9.50;96914.00;;;;4999855;28;20210;-83
2024/03/18 01:45:49;;;;;;;357.70;101.47;;;7.20;99.90;10.00;96921.00;;;;5004776;28;20285;-84
2024/03/18 01:48:38;;;;;;;339.67;90.23;;;7.30;99.90;10.00;96927.00;;;;4998210;28;20445;-84
2024/03/18 01:51:26;;;;;;;341.13;90.50;;;7.30;99.90;9.70;96917.00;;;;5002127;28;20433;-83
2024/03/18 01:54:14;;;;;;;338.73;86.53;;;7.30;99.90;10.10;96922.00;;;;5003267;28;20448;-84
2024/03/18 01:57:03;;;;;;;332.23;84.43;;;7.40;99.90;10.10;96922.00;;;;5005113;28;20461;-83
2024/03/18 01:59:51;;;;;;;341.70;91.17;;;7.40;99.90;9.60;96909.00;;;;4998915;28;20835;-83
2024/03/18 02:02:39;;;;;;;351.10;98.93;;;7.40;99.90;10.20;96916.00;;;;5000363;28;20516;-84
2024/03/18 02:05:28;;;;;;;344.17;94.50;;;7.40;99.90;10.30;96905.00;;;;5003977;28;21031;-82
2024/03/18 02:08:16;;;;;;;333.13;85.03;;;7.50;99.90;9.90;96909.00;;;;4999665;28;20491;-84
2024/03/18 02:11:05;;;;;;;344.77;91.23;;;7.50;99.90;9.90;96912.00;;;;4996719;28;20865;-83
2024/03/18 02:13:53;;;;;;;344.43;91.90;;;7.50;99.90;9.80;96902.00;;;;4996393;28;20433;-84
2024/03/18 02:16:42;;;;;;;346.63;96.53;;;7.50;99.90;9.90;96910.00;;;;4999965;28;20471;-83
2024/03/18 02:19:30;;;;;;;337.17;86.20;;;7.50;99.90;10.30;96901.00;;;;4997762;28;20438;-83
2024/03/18 02:22:19;;;;;;;334.53;87.43;;;7.50;99.90;10.20;96899.00;;;;5004332;28;20217;-84
2024/03/18 02:25:09;;;;;;;341.23;93.70;;;7.50;99.90;10.10;96895.00;;;;5001667;28;20655;-82
2024/03/18 02:27:57;;;;;;;338.90;89.00;;;7.50;99.90;10.30;96906.00;;;;4996565;28;20212;-83
2024/03/18 02:30:45;;;;;;;352.47;98.90;;;7.50;99.90;9.70;96897.00;;;;4997147;28;20249;-83
2024/03/18 02:33:35;;;;;;;340.57;93.13;;;7.50;99.90;10.00;96897.00;;;;4990201;28;20272;-82
2024/03/18 02:36:23;;;;;;;335.90;86.73;;;7.50;99.90;10.40;96897.00;;;;4993053;28;20230;-83
2024/03/18 02:39:12;;;;;;;337.47;91.20;;;7.50;99.90;10.20;96887.00;;;;4992787;28;20417;-84
2024/03/18 02:42:00;;;;;;;334.67;87.73;;;7.50;99.90;10.10;96891.00;;;;4991747;28;20483;-83
2024/03/18 02:44:48;;;;;;;346.40;96.40;;;7.50;99.90;10.00;96884.00;;;;4994297;28;20745;-84
2024/03/18 02:47:36;;;;;;;333.57;87.83;;;7.50;99.90;10.00;96887.00;;;;4996998;28;20503;-84
2024/03/18 02:50:25;;;;;;;330.87;82.10;;;7.50;99.90;10.00;96889.00;;;;4997416;28;20481;-83
2024/03/18 02:53:12;;;;;;;334.87;88.17;;;7.50;99.90;9.60;96885.00;;;;4997742;28;20482;-82
2024/03/18 02:56:02;;;;;;;345.90;94.97;;;7.40;99.90;9.50;96882.00;;;;4990335;28;21031;-83
2024/03/18 02:58:50;;;;;;;345.57;93.90;;;7.40;99.90;9.60;96876.00;;;;5001765;28;21047;-84
2024/03/18 03:01:38;;;;;;;334.80;85.93;;;7.30;99.90;9.60;96877.00;;;;4993726;28;20450;-83
2024/03/18 03:04:26;;;;;;;339.63;88.40;;;7.30;99.90;9.70;96875.00;;;;5014954;28;20214;-83
2024/03/18 03:07:14;;;;;;;332.37;84.53;;;7.30;99.90;9.70;96864.00;;;;4989219;28;20216;-82
2024/03/18 03:10:03;;;;;;;340.87;90.30;;;7.30;99.90;9.80;96868.00;;;;5005802;28;20220;-83
2024/03/18 03:12:53;;;;;;;347.77;94.20;;;7.30;99.90;10.20;96866.00;;;;4996221;28;20260;-84
2024/03/18 03:15:40;;;;;;;350.30;97.47;;;7.40;99.90;10.30;96868.00;;;;4989734;28;20239;-83
2024/03/18 03:18:29;;;;;;;339.93;91.37;;;7.40;99.90;10.00;96863.00;;;;5004047;28;20202;-83
2024/03/18 03:21:18;;;;;;;336.63;88.30;;;7.50;99.90;9.40;96857.00;;;;4997807;28;20232;-84
2024/03/18 03:24:06;;;;;;;332.53;84.13;;;7.40;99.90;9.60;96862.00;;;;4995854;28;20217;-83
2024/03/18 03:26:54;;;;;;;350.43;98.70;;;7.30;99.90;9.30;96857.00;;;;4994272;28;20283;-83
2024/03/18 03:29:44;;;;;;;342.67;93.53;;;7.20;99.90;9.70;96856.00;;;;4998417;28;20598;-82
2024/03/18 03:32:32;;;;;;;337.53;87.93;;;7.20;99.90;10.20;96856.00;;;;4993305;28;20261;-84
2024/03/18 03:35:20;;;;;;;340.80;89.77;;;7.30;99.90;10.40;96865.00;;;;4991948;28;20230;-83
2024/03/18 03:38:08;;;;;;;333.87;87.90;;;7.40;99.90;10.10;96864.00;;;;4999476;28;20619;-82
2024/03/18 03:40:56;;;;;;;352.20;97.67;;;7.40;99.90;10.10;96860.00;;;;4995446;28;20206;-83
2024/03/18 03:43:48;;;;;;;347.53;95.47;;;7.40;99.90;10.00;96863.00;;;;4995378;28;20216;-83
2024/03/18 03:46:37;;;;;;;340.87;88.10;;;7.50;99.90;10.30;96865.00;;;;4992760;28;20224;-84
2024/03/18 03:49:25;;;;;;;340.03;90.30;;;7.50;99.90;9.80;96851.00;;;;4990230;28;20211;-83
2024/03/18 03:52:13;;;;;;;341.00;91.77;;;7.50;99.90;9.80;96857.00;;;;4994624;28;20209;-82
2024/03/18 03:55:01;;;;;;;344.53;94.00;;;7.40;99.90;9.90;96863.00;;;;4995450;28;20237;-82
2024/03/18 03:57:49;;;;;;;349.07;95.93;;;7.40;99.90;9.80;96858.00;;;;4994911;28;20260;-83
2024/03/18 04:00:37;;;;;;;342.77;91.83;;;7.40;99.90;9.90;96857.00;;;;4994060;28;20210;-83
2024/03/18 04:03:26;;;;;;;347.03;92.27;;;7.40;99.90;9.90;96863.00;;;;4999538;28;20266;-83
2024/03/18 04:06:14;;;;;;;350.07;97.47;;;7.40;99.90;10.00;96852.00;;;;4995088;28;20226;-82
2024/03/18 04:09:02;;;;;;;343.10;91.47;;;7.40;99.90;10.10;96850.00;;;;4994169;28;20698;-84
2024/03/18 04:11:50;;;;;;;349.97;95.87;;;7.40;99.90;9.60;96849.00;;;;4987922;28;20202;-83
2024/03/18 04:14:38;;;;;;;339.60;87.83;;;7.40;99.90;9.60;96853.00;;;;4999654;28;20256;-84
2024/03/18 04:17:27;;;;;;;339.73;91.60;;;7.30;99.90;9.50;96847.00;;;;5001122;28;20234;-82
2024/03/18 04:20:19;;;;;;;341.17;90.73;;;7.20;99.90;9.70;96844.00;;;;4990134;28;20207;-80
2024/03/18 04:23:07;;;;;;;340.37;88.03;;;7.20;99.90;10.00;96845.00;;;;4992287;28;20218;-82
2024/03/18 04:25:55;;;;;;;344.47;92.00;;;7.20;99.90;10.20;96846.00;;;;4993970;28;20268;-82
2024/03/18 04:28:43;;;;;;;348.63;95.77;;;7.30;99.90;10.30;96848.00;;;;4989639;28;20207;-83
2024/03/18 04:31:31;;;;;;;339.73;91.23;;;7.40;99.90;10.20;96850.00;;;;4996934;28;20221;-84
2024/03/18 04:34:19;;;;;;;337.33;85.77;;;7.40;99.90;10.00;96836.00;;;;4995917;28;20217;-82
2024/03/18 04:37:08;;;;;;;345.73;94.93;;;7.40;99.90;10.00;96842.00;;;;4992230;28;20289;-83
2024/03/18 04:39:56;;;;;;;339.80;88.97;;;7.50;99.90;9.70;96841.00;;;;4993837;28;20686;-82
2024/03/18 04:42:46;;;;;;;348.73;95.30;;;7.40;99.90;9.90;96834.00;;;;4995284;28;20633;-83
2024/03/18 04:45:34;;;;;;;334.93;87.83;;;7.40;99.90;9.80;96832.00;;;;4996271;28;20236;-81
2024/03/18 04:48:22;;;;;;;339.97;91.17;;;7.40;99.90;9.50;96835.00;;;;4986120;28;20710;-83
2024/03/18 04:51:10;;;;;;;346.37;95.00;;;7.30;99.90;9.90;96840.00;;;;4990311;28;20237;-83
2024/03/18 04:53:59;;;;;;;347.40;94.40;;;7.30;99.90;9.90;96837.00;;;;4995473;28;20261;-83
2024/03/18 04:56:47;;;;;;;347.77;94.27;;;7.40;99.90;10.20;96832.00;;;;4997422;28;20238;-82
2024/03/18 04:59:36;;;;;;;340.30;91.77;;;7.40;99.90;10.30;96835.00;;;;4994362;28;20576;-81
2024/03/18 05:02:24;;;;;;;340.77;90.13;;;7.50;99.90;9.80;96834.00;;;;4991884;28;20210;-82
2024/03/18 05:05:14;;;;;;;340.30;89.63;;;7.40;99.90;9.70;96835.00;;;;4993466;28;20260;-82
2024/03/18 05:08:03;;;;;;;338.43;88.13;;;7.40;99.90;10.00;96838.00;;;;4988969;28;20683;-81
2024/03/18 05:10:52;;;;;;;357.90;99.23;;;7.40;99.90;9.90;96840.00;;;;4989687;28;20706;-81
2024/03/18 05:13:40;;;;;;;346.90;96.00;;;7.40;99.90;9.60;96845.00;;;;4994115;28;20202;-81
2024/03/18 05:16:34;;;;;;;342.47;90.63;;;7.40;99.90;9.60;96833.00;;;;4994553;28;20226;-83
2024/03/18 05:19:23;;;;;;;342.53;90.97;;;7.30;99.90;9.50;96839.00;;;;4996051;28;20679;-81
2024/03/18 05:22:13;;;;;;;337.27;85.80;;;7.30;99.90;9.50;96838.00;;;;5008532;28;20220;-82
2024/03/18 05:25:08;;;;;;;341.93;89.30;;;7.30;99.90;9.90;96848.00;;;;4996376;28;20426;-82
2024/03/18 05:27:58;;;;;;;351.33;96.20;;;7.30;99.90;10.20;96844.00;;;;4991416;28;20210;-83
2024/03/18 05:30:45;;;;;;;350.70;96.03;;;7.40;99.90;10.00;96848.00;;;;4994855;28;20224;-82
2024/03/18 05:33:33;;;;;;;340.77;90.43;;;7.40;99.90;10.20;96848.00;;;;4994891;28;20216;-83
2024/03/18 05:36:21;;;;;;;338.63;90.83;;;7.50;99.90;10.10;96846.00;;;;4992363;28;20241;-81
2024/03/18 05:39:10;;;;;;;336.83;88.27;;;7.50;99.90;10.20;96851.00;;;;4999038;28;20240;-82
2024/03/18 05:41:58;;;;;;;338.87;88.40;;;7.50;99.90;10.10;96840.00;;;;4997343;28;20205;-82
2024/03/18 05:44:47;;;;;;;354.53;101.93;;;7.50;99.90;9.90;96846.00;;;;4992244;28;20209;-81
2024/03/18 05:47:36;;;;;;;343.37;91.43;;;7.50;99.90;10.10;96843.00;;;;4981324;28;22252;-80
2024/03/18 05:50:23;;;;;;;346.23;96.03;;;7.50;99.90;10.20;96847.00;;;;4987298;28;20237;-81
2024/03/18 05:53:12;;;;;;;335.30;86.20;;;7.60;99.90;10.50;96851.00;;;;4984738;28;20635;-80
2024/03/18 05:56:02;;;;;;;358.73;103.40;;;7.70;99.90;10.60;96848.00;;;;4984662;28;20320;-79
2024/03/18 05:58:51;;;;;;;357.33;103.20;;;7.70;99.90;10.60;96851.00;;;;4992372;28;20210;-81
2024/03/18 06:01:42;;;;;;;344.73;93.13;;;7.80;99.90;10.50;96852.00;;;;5005773;28;20210;-81
2024/03/18 06:04:30;;;;;;;343.27;92.50;;;7.70;99.90;10.30;96854.00;;;;4986305;28;20202;-81
2024/03/18 06:07:21;;;;;;;349.87;99.67;;;7.80;99.90;10.40;96846.00;;;;5000237;28;20216;-83
2024/03/18 06:10:09;;;;;;;347.60;96.17;;;7.70;99.90;10.70;96852.00;;;;4984902;28;20213;-81
2024/03/18 06:12:57;;;;;;;350.83;98.63;;;7.80;99.90;10.60;96845.00;;;;4988044;28;20640;-80
2024/03/18 06:15:45;;;;;;;358.37;103.77;;;7.70;99.90;10.70;96845.00;;;;4980518;28;20253;-80
2024/03/18 06:18:35;;;;;;;338.37;91.20;;;7.80;99.90;10.90;96846.00;;;;4991700;28;20214;-81
2024/03/18 06:21:28;;;;;;;342.10;94.60;;;7.90;99.90;11.10;96851.00;;;;4985571;28;20217;-83
2024/03/18 06:24:22;;;;;;;346.60;95.63;;;7.90;99.90;10.60;96843.00;;;;4992364;28;20216;-83
2024/03/18 06:27:09;;;;;;;348.43;99.03;;;7.90;99.90;11.00;96851.00;;;;4985663;28;20205;-81
2024/03/18 06:29:57;;;;;;;349.50;97.43;;;8.00;99.90;11.10;96848.00;;;;4991517;28;20221;-80
2024/03/18 06:32:45;;;;;;;351.40;99.60;;;8.00;99.90;10.80;96842.00;;;;4989784;28;20218;-81
2024/03/18 06:35:34;;;;;;;342.47;95.97;;;8.00;99.90;10.50;96832.00;;;;4999371;28;20237;-81
2024/03/18 06:38:22;;;;;;;350.07;100.23;;;8.00;99.90;10.90;96852.00;;;;4991743;28;20236;-80
2024/03/18 06:41:10;;;;;;;350.50;98.40;;;8.00;99.90;11.20;96853.00;;;;4990845;28;20210;-80
2024/03/18 06:43:59;;;;;;;345.97;98.40;;;8.10;99.90;11.10;96856.00;;;;4993196;28;20252;-80
2024/03/18 06:46:47;;;;;;;356.73;102.40;;;8.20;99.90;11.40;96848.00;;;;4998344;28;20707;-81
2024/03/18 06:49:38;;;;;;;348.43;98.27;;;8.20;99.90;11.50;96847.00;;;;4993699;28;20577;-81
2024/03/18 06:52:27;;;;;;;346.80;97.23;;;8.40;99.90;11.70;96845.00;;;;4991187;28;20307;-81
2024/03/18 06:55:15;;;;;;;345.40;97.97;;;8.40;99.90;11.80;96845.00;;;;4997833;28;20625;-82
2024/03/18 06:58:04;;;;;;;344.43;96.23;;;8.50;99.90;11.80;96847.00;;;;4999798;28;20305;-81
2024/03/18 07:00:53;;;;;;;356.60;106.67;;;8.60;99.90;11.60;96836.00;;;;4991843;28;20206;-84
2024/03/18 07:03:41;;;;;;;353.50;103.50;;;8.70;99.90;11.20;96832.00;;;;5003585;28;20210;-83
2024/03/18 07:06:29;;;;;;;347.83;96.77;;;8.60;99.90;11.30;96840.00;;;;4996578;28;20221;-84
2024/03/18 07:09:19;;;;;;;348.83;97.13;;;8.60;99.90;11.80;96837.00;;;;4992348;28;20777;-83
2024/03/18 07:12:07;;;;;;;353.73;108.97;;;8.70;99.90;12.10;96830.00;;;;4992036;28;20625;-81
2024/03/18 07:14:56;;;;;;;363.27;107.67;;;8.80;99.90;12.20;96840.00;;;;4991642;28;20198;-84
2024/03/18 07:17:45;;;;;;;351.80;103.03;;;8.90;99.90;12.10;96835.00;;;;4989259;28;20476;-83
2024/03/18 07:20:33;;;;;;;346.77;98.80;;;9.00;99.90;12.40;96840.00;;;;4989252;28;20203;-80
2024/03/18 07:23:22;;;;;;;353.00;105.07;;;9.10;99.90;12.50;96835.00;;;;4990077;28;20225;-84
2024/03/18 07:26:11;;;;;;;350.87;103.00;;;9.20;99.90;12.40;96824.00;;;;5005306;28;20251;-84
2024/03/18 07:28:59;;;;;;;356.77;106.97;;;9.30;99.90;12.50;96830.00;;;;4994034;28;20222;-84
2024/03/18 07:31:47;;;;;;;363.70;113.47;;;9.30;99.90;12.60;96838.00;;;;4992029;28;20762;-84
2024/03/18 07:34:35;;;;;;;359.83;109.77;;;8.30;99.90;12.40;96842.00;;;;4992576;28;20206;-82
2024/03/18 07:37:23;;;;;;;355.00;106.40;;;9.40;99.90;12.80;96841.00;;;;4987309;28;20218;-84
2024/03/18 07:40:12;;;;;;;355.63;107.73;;;9.50;99.90;12.60;96832.00;;;;4992721;28;20216;-83
2024/03/18 07:43:01;;;;;;;354.57;108.47;;;9.50;99.90;12.40;96840.00;;;;4986868;28;20202;-84
2024/03/18 07:45:49;;;;;;;366.83;114.77;;;9.50;99.90;12.60;96841.00;;;;4989686;28;20221;-81
2024/03/18 07:48:37;;;;;;;350.80;107.20;;;9.50;99.90;13.00;96840.00;;;;4991434;28;20757;-82
2024/03/18 07:51:26;;;;;;;358.10;112.43;;;9.60;99.90;12.90;96833.00;;;;4992921;28;20713;-82
2024/03/18 07:54:14;;;;;;;351.97;103.93;;;9.70;99.90;13.00;96833.00;;;;4991584;28;20207;-83
2024/03/18 07:57:02;;;;;;;353.50;111.50;;;9.80;99.90;12.90;96832.00;;;;4989060;28;20238;-83
2024/03/18 07:59:52;;;;;;;358.47;114.40;;;9.80;99.90;12.50;96818.00;;;;4986124;28;20623;-81
2024/03/18 08:02:40;;;;;;;348.10;104.53;;;9.80;99.90;12.40;96811.00;;;;4991585;28;20203;-82
2024/03/18 08:05:29;;;;;;;351.07;104.60;;;9.80;99.90;12.90;96819.00;;;;4990320;28;20236;-84
2024/03/18 08:08:17;;;;;;;352.57;104.33;;;9.80;99.90;12.90;96806.00;;;;4994313;28;20212;-83
2024/03/18 08:11:05;;;;;;;361.77;116.20;;;9.90;99.90;12.90;96808.00;;;;4990341;28;20248;-80
2024/03/18 08:13:53;;;;;;;367.60;119.83;;;10.00;99.90;12.80;96808.00;;;;4999511;28;20292;-83
2024/03/18 08:16:44;;;;;;;355.90;112.30;;;10.00;99.90;13.30;96799.00;;;;4986702;28;20639;-82
2024/03/18 08:19:32;;;;;;;361.67;111.63;;;10.10;99.90;13.60;96794.00;;;;4990597;28;20682;-81
2024/03/18 08:22:20;;;;;;;354.57;109.47;;;10.20;99.90;13.90;96798.00;;;;4989291;28;20198;-84
2024/03/18 08:25:09;;;;;;;360.07;115.67;;;10.30;99.90;14.00;96801.00;;;;4990957;28;20238;-82
2024/03/18 08:27:57;;;;;;;370.53;125.63;;;10.50;99.90;14.40;96791.00;;;;4988370;28;20649;-83
2024/03/18 08:30:45;;;;;;;369.77;122.97;;;10.70;99.90;14.10;96791.00;;;;4987344;28;20212;-83
2024/03/18 08:33:34;;;;;;;360.30;120.37;;;10.80;99.90;14.30;96784.00;;;;4996892;28;20207;-82
2024/03/18 08:36:22;;;;;;;357.77;117.43;;;10.90;99.90;14.60;96777.00;;;;4988690;28;20226;-83
2024/03/18 08:39:10;;;;;;;360.03;119.37;;;11.10;99.90;15.10;96770.00;;;;4987799;28;20199;-83
2024/03/18 08:41:58;;;;;;;371.13;133.97;;;11.30;99.90;15.00;96775.00;;;;4983290;28;20290;-83
2024/03/18 08:44:48;;;;;;;369.83;127.70;;;11.50;99.90;15.40;96773.00;;;;4985922;28;20198;-84
2024/03/18 08:47:36;;;;;;;363.23;124.83;;;11.70;99.90;15.60;96767.00;;;;4987138;28;20214;-82
2024/03/18 08:50:26;;;;;;;366.50;133.87;;;11.90;99.90;15.20;96764.00;;;;4989653;28;20248;-84
2024/03/18 08:53:14;;;;;;;365.73;128.23;;;12.10;99.90;15.20;96762.00;;;;4988064;28;20212;-85
2024/03/18 08:56:02;;;;;;;383.07;145.20;;;12.00;99.90;15.70;96771.00;;;;4986931;28;20246;-82
2024/03/18 08:58:50;;;;;;;377.33;141.40;;;12.20;99.90;15.70;96760.00;;;;4981500;28;20232;-84
2024/03/18 09:01:37;;;;;;;368.13;133.07;;;12.30;99.90;15.10;96759.00;;;;4982792;28;20211;-82
2024/03/18 09:04:25;;;;;;;368.43;134.03;;;12.30;99.90;15.90;96760.00;;;;4985457;28;22205;-82
2024/03/18 09:07:14;;;;;;;369.67;134.80;;;12.30;99.90;15.90;96760.00;;;;5002086;28;20206;-84
2024/03/18 09:10:02;;;;;;;375.27;145.73;;;12.40;99.90;15.60;96749.00;;;;4985086;28;20217;-85
2024/03/18 09:12:50;;;;;;;386.17;148.07;;;12.50;99.90;16.10;96749.00;;;;4985761;28;20413;-84
2024/03/18 09:15:38;;;;;;;378.73;155.23;;;12.70;99.90;16.40;96741.00;;;;4987017;28;20236;-82
2024/03/18 09:18:26;;;;;;;375.50;144.23;;;12.80;99.90;16.50;96751.00;;;;4985611;28;20659;-84
2024/03/18 09:21:14;;;;;;;370.57;135.83;;;13.00;99.90;15.90;96739.00;;;;4987336;28;20214;-82
2024/03/18 09:24:04;;;;;;;371.63;143.97;;;12.90;99.90;16.50;96739.00;;;;4988054;28;20201;-83
2024/03/18 09:26:52;;;;;;;378.93;146.23;;;13.00;99.90;16.30;96742.00;;;;4985291;28;20218;-83
2024/03/18 09:29:40;;;;;;;374.90;151.60;;;13.10;99.90;16.10;96734.00;;;;5002580;28;20753;-82
2024/03/18 09:32:29;;;;;;;373.30;147.83;;;14.50;99.90;16.50;96728.00;;;;4982539;28;20300;-85
2024/03/18 09:35:17;;;;;;;375.50;153.23;;;13.10;99.90;16.60;96733.00;;;;4981349;28;20629;-86
2024/03/18 09:38:05;;;;;;;374.10;145.77;;;13.20;99.90;16.70;96728.00;;;;4984068;28;20309;-83
2024/03/18 09:41:03;;;;;;;385.97;163.83;;;13.30;99.90;16.70;96727.00;;;;4985565;28;21261;-84
2024/03/18 09:43:52;;;;;;;389.50;172.07;;;13.30;99.90;16.60;96718.00;;;;4984881;28;20871;-85
2024/03/18 09:46:40;;;;;;;389.03;189.83;;;13.30;99.90;16.90;96712.00;;;;4985981;28;20230;-82
2024/03/18 09:49:28;;;;;;;374.53;149.43;;;13.40;99.90;16.70;96714.00;;;;4979599;28;20601;-83
2024/03/18 09:52:17;;;;;;;379.07;153.43;;;13.40;99.90;16.30;96715.00;;;;4979234;28;20222;-82
2024/03/18 09:55:21;;;;;;;377.37;157.93;;;13.40;99.90;16.30;96708.00;;;;4965468;28;20304;-83
2024/03/18 09:58:15;;;;;;;367.77;146.63;;;13.30;99.90;16.60;96712.00;;;;4990944;28;20202;-83
2024/03/18 10:01:03;;;;;;;383.70;153.47;;;13.30;99.90;16.40;96709.00;;;;4997555;28;20212;-84
2024/03/18 10:03:51;;;;;;;381.27;162.30;;;13.30;99.80;16.50;96709.00;;;;4997338;28;20944;-83
2024/03/18 10:06:40;;;;;;;381.03;165.77;;;13.30;99.90;16.50;96711.00;;;;4992642;28;20218;-84
2024/03/18 10:09:31;;;;;;;380.50;158.57;;;13.30;99.50;16.30;96710.00;;;;4990196;28;20459;-82
2024/03/18 10:12:19;;;;;;;375.97;152.17;;;13.30;99.50;15.90;96709.00;;;;4987041;28;20232;-83
2024/03/18 10:15:13;;;;;;;373.90;154.40;;;13.20;99.10;16.10;96700.00;;;;4986908;28;20737;-83
2024/03/18 10:18:01;;;;;;;372.00;148.00;;;13.10;99.30;16.00;96696.00;;;;4989078;28;21138;-83
2024/03/18 10:20:49;;;;;;;385.60;154.33;;;13.10;99.50;15.90;96699.00;;;;4987463;28;20212;-84
2024/03/18 10:23:40;;;;;;;375.80;150.17;;;13.00;99.90;15.70;96696.00;;;;4992085;28;20198;-84
2024/03/18 10:26:27;;;;;;;369.23;136.53;;;12.90;99.30;16.00;96698.00;;;;4987199;28;20256;-82
2024/03/18 10:29:15;;;;;;;370.63;136.00;;;12.80;99.70;15.40;96691.00;;;;4987837;28;20202;-85
2024/03/18 10:32:06;;;;;;;372.77;139.63;;;12.80;99.10;16.00;96691.00;;;;4984682;28;20241;-84
2024/03/18 10:34:58;;;;;;;370.47;146.40;;;12.80;99.60;16.20;96691.00;;;;4989900;28;20571;-83
2024/03/18 10:37:55;;;;;;;381.10;152.03;;;12.80;99.90;16.60;96687.00;;;;4991909;28;20588;-83
2024/03/18 10:40:45;;;;;;;369.70;142.90;;;13.00;99.90;16.70;96675.00;;;;4990943;28;20294;-82
2024/03/18 10:43:36;;;;;;;369.07;144.73;;;13.10;99.70;16.50;96690.00;;;;4987016;28;20680;-85
2024/03/18 10:46:24;;;;;;;376.87;158.37;;;13.20;99.70;16.50;96677.00;;;;4986714;28;20237;-83
2024/03/18 10:49:17;;;;;;;365.00;146.43;;;13.20;99.00;16.10;96672.00;;;;4984035;28;20214;-84
2024/03/18 10:52:06;;;;;;;364.00;134.90;;;13.20;98.70;16.70;96674.00;;;;4984531;28;20725;-82
2024/03/18 10:54:56;;;;;;;372.97;144.10;;;13.30;99.00;16.70;96664.00;;;;4991017;28;20217;-84
2024/03/18 10:57:45;;;;;;;369.17;142.97;;;13.30;98.90;17.20;96668.00;;;;4996799;28;20220;-85
2024/03/18 11:00:33;;;;;;;364.30;139.73;;;13.50;99.40;17.40;96666.00;;;;4997172;28;20632;-82
2024/03/18 11:03:23;;;;;;;370.27;147.73;;;13.70;99.10;17.30;96657.00;;;;4986408;28;20601;-82
2024/03/18 11:06:17;;;;;;;367.57;152.27;;;13.80;98.40;17.10;96657.00;;;;4990116;28;20234;-84
2024/03/18 11:09:08;;;;;;;375.37;154.77;;;13.90;97.80;16.80;96659.00;;;;5000500;28;20222;-83
2024/03/18 11:11:56;;;;;;;383.70;161.03;;;13.80;97.00;15.90;96651.00;;;;4985800;28;20714;-83
2024/03/18 11:14:44;;;;;;;365.93;142.07;;;13.80;97.00;16.80;96651.00;;;;4984378;28;20599;-83
2024/03/18 11:17:32;;;;;;;376.97;156.43;;;13.70;97.30;16.50;96642.00;;;;4989480;28;20257;-84
2024/03/18 11:20:21;;;;;;;377.40;153.87;;;13.60;96.10;16.40;96639.00;;;;4985665;28;20673;-83
2024/03/18 11:23:16;;;;;;;364.30;140.53;;;13.60;96.60;16.50;96638.00;;;;4991230;28;20214;-83
2024/03/18 11:26:07;;;;;;;378.13;151.20;;;13.50;96.90;16.90;96641.00;;;;4998563;28;20226;-83
2024/03/18 11:29:04;;;;;;;373.40;147.13;;;13.50;97.40;16.50;96637.00;;;;5004929;28;20210;-85
2024/03/18 11:31:52;;;;;;;368.67;144.53;;;13.40;96.40;16.10;96632.00;;;;5005912;28;20202;-85
2024/03/18 11:34:41;;;;;;;369.37;140.83;;;13.30;96.80;16.10;96631.00;;;;4986488;28;20221;-83
2024/03/18 11:37:32;;;;;;;366.97;134.83;;;13.30;97.70;16.20;96642.00;;;;4977759;28;20213;-82
2024/03/18 11:40:23;;;;;;;368.33;141.47;;;13.20;97.50;16.70;96629.00;;;;4983482;28;20669;-81
2024/03/18 11:43:12;;;;;;;363.57;137.53;;;13.30;98.00;16.10;96620.00;;;;4977892;28;20215;-83
2024/03/18 11:46:00;;;;;;;384.47;152.57;;;13.30;97.60;15.30;96618.00;;;;4995276;28;20506;-84
2024/03/18 11:48:48;;;;;;;384.57;154.67;;;13.20;96.60;16.10;96615.00;;;;4979326;28;20683;-83
2024/03/18 11:51:36;;;;;;;369.30;135.37;;;13.10;97.60;14.90;96597.00;;;;4978878;28;20207;-82
2024/03/18 11:54:24;;;;;;;365.87;132.83;;;12.90;97.00;15.90;96597.00;;;;4983726;28;20210;-82
2024/03/18 11:57:14;;;;;;;362.90;136.00;;;12.90;97.70;15.40;96594.00;;;;4992538;28;20264;-83
2024/03/18 12:00:11;;;;;;;363.07;131.20;;;12.90;97.70;15.50;96594.00;;;;4989855;28;20605;-84
2024/03/18 12:02:59;;;;;;;379.27;150.43;;;12.90;97.30;15.70;96597.00;;;;4989826;28;20928;-84
2024/03/18 12:05:48;;;;;;;386.93;163.60;;;12.90;96.80;15.70;96590.00;;;;4990855;28;20230;-83
2024/03/18 12:08:36;;;;;;;370.27;146.10;;;12.80;97.00;16.10;96590.00;;;;5002558;28;20214;-83
2024/03/18 12:11:24;;;;;;;360.17;133.47;;;12.90;97.60;16.00;96581.00;;;;4992523;28;20229;-82